createdAt,value
2018-11-05T00:03:00.903Z,74.83
2018-11-05T00:08:05.376Z,69.80
2018-11-05T00:13:09.911Z,77.30
2018-11-05T00:18:14.952Z,74.50
2018-11-05T00:23:19.173Z,71.73
2018-11-05T00:28:23.744Z,77.70
2018-11-05T00:33:28.689Z,82.97
2018-11-05T00:38:33.377Z,79.30
2018-11-05T00:43:51.423Z,75.57
2018-11-05T00:48:56.291Z,77.77
2018-11-05T00:54:01.423Z,77.13
2018-11-05T00:59:05.969Z,77.90
2018-11-05T01:04:11.276Z,74.27
2018-11-05T01:09:17.245Z,77.20
2018-11-05T01:14:22.423Z,82.77
2018-11-05T01:19:27.054Z,76.37
2018-11-05T01:24:32.106Z,72.47
2018-11-05T01:29:36.837Z,63.30
2018-11-05T01:34:41.410Z,59.37
2018-11-05T01:39:46.656Z,73.07
2018-11-05T01:44:51.259Z,78.80
2018-11-05T01:49:55.882Z,79.13
2018-11-05T01:55:00.694Z,78.30
2018-11-05T02:00:07.170Z,88.57
2018-11-05T02:05:12.444Z,82.50
2018-11-05T02:10:19.176Z,88.07
2018-11-05T02:15:24.343Z,87.97
2018-11-05T02:20:28.696Z,88.73
2018-11-05T02:25:33.544Z,94.93
2018-11-05T02:30:37.909Z,90.77
2018-11-05T02:35:44.091Z,90.10
2018-11-05T02:40:48.555Z,91.77
2018-11-05T02:45:55.994Z,90.83
2018-11-05T02:51:03.687Z,94.10
2018-11-05T02:56:09.101Z,96.27
2018-11-05T03:01:14.173Z,96.60
2018-11-05T03:06:18.389Z,94.57
2018-11-05T03:11:23.305Z,92.90
2018-11-05T03:16:28.708Z,87.97
2018-11-05T03:21:34.365Z,84.77
2018-11-05T03:26:39.174Z,87.80
2018-11-05T03:31:43.483Z,96.13
2018-11-05T03:36:47.880Z,76.30
2018-11-05T03:41:53.440Z,75.07
2018-11-05T03:46:57.718Z,74.63
2018-11-05T03:52:02.267Z,76.20
2018-11-05T03:57:06.667Z,80.73
2018-11-05T04:02:11.145Z,76.50
2018-11-05T04:07:19.138Z,70.77
2018-11-05T04:12:23.704Z,80.80
2018-11-05T04:17:28.339Z,79.97
2018-11-05T04:22:33.111Z,75.33
2018-11-05T04:27:38.577Z,77.33
2018-11-05T04:32:44.219Z,77.23
2018-11-05T04:37:49.317Z,74.30
2018-11-05T04:42:53.925Z,76.70
2018-11-05T04:47:58.445Z,65.90
2018-11-05T04:53:02.997Z,68.20
2018-11-05T04:58:07.504Z,64.37
2018-11-05T05:03:12.019Z,58.77
2018-11-05T05:08:16.823Z,64.50
2018-11-05T05:13:21.169Z,58.80
2018-11-05T05:18:25.843Z,59.07
2018-11-05T05:29:02.756Z,57.30
2018-11-05T05:34:07.558Z,58.40
2018-11-05T05:39:12.021Z,54.87
2018-11-05T05:44:16.583Z,52.60
2018-11-05T05:49:21.293Z,57.77
2018-11-05T05:54:26.571Z,60.73
2018-11-05T05:59:31.168Z,57.60
2018-11-05T06:04:35.502Z,60.37
2018-11-05T06:09:39.985Z,60.67
2018-11-05T06:14:44.376Z,56.33
2018-11-05T06:19:48.909Z,61.73
2018-11-05T06:24:53.338Z,62.83
2018-11-05T06:29:58.049Z,61.70
2018-11-05T06:35:02.967Z,68.43
2018-11-05T06:40:08.633Z,62.90
2018-11-05T06:45:22.836Z,56.70
2018-11-05T06:50:27.602Z,56.70
2018-11-05T06:55:38.141Z,58.57
2018-11-05T07:00:42.993Z,58.27
2018-11-05T07:05:47.870Z,55.07
2018-11-05T07:10:52.613Z,55.50
2018-11-05T07:15:57.290Z,57.43
2018-11-05T07:21:01.785Z,58.37
2018-11-05T07:26:07.659Z,49.57
2018-11-05T07:31:12.187Z,52.93
2018-11-05T07:36:17.447Z,52.30
2018-11-05T07:41:22.053Z,50.53
2018-11-05T07:46:26.941Z,49.93
2018-11-05T07:51:31.388Z,51.87
2018-11-05T07:56:35.963Z,58.07
2018-11-05T08:01:40.440Z,54.33
2018-11-05T08:06:44.814Z,57.17
2018-11-05T08:11:49.293Z,55.77
2018-11-05T08:16:53.673Z,54.63
2018-11-05T08:21:58.165Z,53.73
2018-11-05T08:27:02.924Z,51.63
2018-11-05T08:32:08.455Z,52.37
2018-11-05T08:37:14.506Z,53.17
2018-11-05T08:42:19.635Z,50.20
2018-11-05T08:47:24.307Z,50.67
2018-11-05T08:58:05.627Z,53.07
2018-11-05T09:03:10.445Z,51.63
2018-11-05T09:08:15.661Z,50.97
2018-11-05T09:13:20.806Z,53.83
2018-11-05T09:18:25.363Z,52.50
2018-11-05T09:23:29.888Z,49.57
2018-11-05T09:28:34.357Z,49.20
2018-11-05T09:33:38.851Z,52.33
2018-11-05T09:38:44.521Z,51.07
2018-11-05T09:43:49.099Z,55.78
2018-11-05T09:48:53.989Z,57.13
2018-11-05T09:54:03.699Z,55.70
2018-11-05T09:59:08.693Z,56.57
2018-11-05T10:04:13.214Z,55.70
2018-11-05T10:09:18.457Z,49.50
2018-11-05T10:14:25.190Z,47.80
2018-11-05T10:19:29.785Z,54.60
2018-11-05T10:24:35.835Z,53.33
2018-11-05T10:29:41.458Z,48.97
2018-11-05T10:34:46.260Z,51.57
2018-11-05T10:39:51.216Z,44.87
2018-11-05T10:44:56.868Z,44.57
2018-11-05T10:50:01.527Z,48.20
2018-11-05T10:55:06.228Z,46.40
2018-11-05T11:00:24.516Z,44.57
2018-11-05T11:05:30.881Z,45.03
2018-11-05T11:10:35.664Z,41.47
2018-11-05T11:15:40.925Z,44.33
2018-11-05T11:20:46.168Z,41.57
2018-11-05T11:25:50.813Z,43.63
2018-11-05T11:30:56.051Z,45.77
2018-11-05T11:36:01.858Z,41.87
2018-11-05T11:41:08.025Z,41.57
2018-11-05T11:46:16.866Z,43.40
2018-11-05T11:51:22.112Z,46.47
2018-11-05T11:56:26.859Z,40.07
2018-11-05T12:01:38.140Z,38.23
2018-11-05T12:06:42.665Z,41.77
2018-11-05T12:11:48.020Z,41.70
2018-11-05T12:16:54.173Z,38.17
2018-11-05T12:21:59.197Z,39.70
2018-11-05T12:27:05.155Z,40.93
2018-11-05T12:32:11.730Z,35.10
2018-11-05T12:37:16.668Z,34.70
2018-11-05T12:42:26.554Z,36.17
2018-11-05T12:47:32.980Z,38.23
2018-11-05T12:52:44.027Z,35.33
2018-11-05T12:57:49.279Z,31.73
2018-11-05T13:03:12.444Z,33.27
2018-11-05T13:08:16.994Z,33.87
2018-11-05T13:13:27.054Z,31.80
2018-11-05T13:18:32.478Z,30.50
2018-11-05T13:23:45.206Z,30.10
2018-11-05T13:28:50.122Z,31.33
2018-11-05T13:33:57.876Z,33.40
2018-11-05T13:39:06.383Z,31.47
2018-11-05T13:44:12.380Z,31.43
2018-11-05T13:49:21.459Z,31.20
2018-11-05T13:54:29.470Z,34.67
2018-11-05T13:59:37.938Z,33.00
2018-11-05T14:04:45.290Z,34.33
2018-11-05T14:09:51.942Z,33.60
2018-11-05T14:14:57.802Z,33.70
2018-11-05T14:20:03.388Z,30.30
2018-11-05T14:25:12.326Z,28.37
2018-11-05T14:30:17.678Z,26.43
2018-11-05T14:35:22.563Z,27.03
2018-11-05T14:40:31.297Z,25.10
2018-11-05T14:45:41.073Z,28.07
2018-11-05T14:50:46.703Z,24.10
2018-11-05T14:55:51.698Z,25.27
2018-11-05T15:00:56.483Z,25.80
2018-11-05T15:06:10.731Z,25.70
2018-11-05T15:11:15.757Z,28.97
2018-11-05T15:16:29.976Z,25.03
2018-11-05T15:21:34.581Z,27.43
2018-11-05T15:26:49.094Z,25.37
2018-11-05T15:31:54.136Z,26.60
2018-11-05T15:37:08.484Z,26.80
2018-11-05T15:42:14.676Z,28.63
2018-11-05T15:47:21.246Z,27.93
2018-11-05T15:52:27.480Z,26.03
2018-11-05T15:57:32.987Z,29.40
2018-11-05T16:02:57.352Z,30.10
2018-11-05T16:08:02.746Z,34.43
2018-11-05T16:13:07.842Z,30.30
2018-11-05T16:18:17.516Z,36.90
2018-11-05T16:23:23.730Z,36.63
2018-11-05T16:28:28.371Z,32.17
2018-11-05T16:33:34.431Z,34.53
2018-11-05T16:38:39.873Z,38.73
2018-11-05T16:43:50.912Z,35.87
2018-11-05T16:48:55.854Z,32.33
2018-11-05T16:54:06.251Z,32.93
2018-11-05T16:59:11.435Z,36.50
2018-11-05T17:04:27.504Z,38.73
2018-11-05T17:09:41.087Z,33.83
2018-11-05T17:14:48.266Z,34.80
2018-11-05T17:19:55.238Z,35.13
2018-11-05T17:25:09.103Z,34.97
2018-11-05T17:30:18.238Z,34.77
2018-11-05T17:35:29.159Z,38.10
2018-11-05T17:40:36.654Z,37.23
2018-11-05T17:45:48.031Z,36.17
2018-11-05T17:51:07.974Z,39.70
2018-11-05T17:56:16.778Z,34.87
2018-11-05T18:06:25.677Z,38.53
2018-11-05T18:11:34.536Z,30.47
2018-11-05T18:16:48.168Z,39.00
2018-11-05T18:27:27.356Z,38.10
2018-11-05T18:38:28.944Z,33.87
2018-11-05T18:43:57.500Z,32.27
2018-11-05T18:49:14.639Z,32.37
2018-11-05T19:21:11.760Z,37.80
2018-11-05T19:26:19.091Z,40.07
2018-11-05T19:31:27.476Z,35.53
2018-11-05T19:36:33.406Z,35.57
2018-11-05T19:41:40.773Z,34.80
2018-11-05T19:46:47.015Z,41.83
2018-11-05T19:51:52.578Z,40.13
2018-11-05T19:57:18.216Z,34.60
2018-11-05T20:02:41.852Z,36.53
2018-11-05T20:07:49.386Z,40.77
2018-11-05T20:13:08.634Z,38.00
2018-11-05T20:18:25.851Z,38.00
2018-11-05T20:23:34.982Z,40.57
2018-11-05T20:28:46.816Z,36.00
2018-11-05T20:33:52.171Z,38.53
2018-11-05T20:38:59.613Z,37.07
2018-11-05T20:44:22.886Z,36.93
2018-11-05T20:49:27.652Z,35.77
2018-11-05T20:54:32.464Z,36.97
2018-11-05T20:59:37.164Z,36.50
2018-11-05T21:04:43.088Z,35.67
2018-11-05T21:09:47.580Z,36.70
2018-11-05T21:14:52.516Z,36.83
2018-11-05T21:19:57.746Z,35.17
2018-11-05T21:25:03.143Z,34.83
2018-11-05T21:30:10.034Z,33.70
2018-11-05T21:35:15.813Z,36.77
2018-11-05T21:40:20.802Z,38.97
2018-11-05T21:45:25.284Z,36.47
2018-11-05T21:50:29.844Z,34.80
2018-11-05T21:55:34.710Z,37.80
2018-11-05T22:00:40.051Z,38.10
2018-11-05T22:05:44.423Z,35.43
2018-11-05T22:10:50.461Z,35.87
2018-11-05T22:15:54.950Z,35.97
2018-11-05T22:20:59.682Z,38.57
2018-11-05T22:26:04.142Z,38.23
2018-11-05T22:31:08.858Z,40.50
2018-11-05T22:36:13.485Z,33.47
2018-11-05T22:41:17.883Z,36.80
2018-11-05T22:46:22.147Z,38.60
2018-11-05T22:51:27.076Z,41.37
2018-11-05T22:56:35.751Z,39.80
2018-11-05T23:01:46.127Z,34.03
2018-11-05T23:06:52.506Z,39.17
2018-11-05T23:11:57.401Z,39.83
2018-11-05T23:17:02.965Z,36.80
2018-11-05T23:22:07.777Z,37.77
2018-11-05T23:27:12.318Z,37.27
2018-11-05T23:32:16.791Z,38.27
2018-11-05T23:37:21.389Z,34.10
2018-11-05T23:42:44.377Z,38.27
2018-11-05T23:47:49.908Z,37.97
2018-11-05T23:52:59.764Z,36.73
2018-11-05T23:58:05.171Z,38.43
